createdAt,value
2023-02-11T00:02:07.591Z,21.23
2023-02-11T00:04:34.886Z,21.88
2023-02-11T00:07:02.997Z,20.90
2023-02-11T00:09:32.034Z,19.98
2023-02-11T00:12:02.612Z,19.83
2023-02-11T00:14:30.136Z,21.45
2023-02-11T00:17:01.530Z,19.80
2023-02-11T00:19:32.649Z,19.65
2023-02-11T00:22:00.188Z,21.23
2023-02-11T00:24:27.558Z,21.38
2023-02-11T00:26:54.843Z,20.27
2023-02-11T00:29:25.846Z,16.35
2023-02-11T00:31:53.221Z,17.45
2023-02-11T00:34:20.527Z,18.67
2023-02-11T00:36:53.290Z,16.92
2023-02-11T00:39:20.694Z,16.60
2023-02-11T00:41:49.565Z,17.08
2023-02-11T00:44:21.149Z,18.13
2023-02-11T00:46:54.568Z,15.32
2023-02-11T00:49:22.240Z,17.20
2023-02-11T00:51:49.642Z,15.45
2023-02-11T00:54:16.994Z,15.23
2023-02-11T00:56:46.527Z,16.27
2023-02-11T00:59:14.123Z,15.55
2023-02-11T01:01:46.423Z,14.90
2023-02-11T01:04:13.783Z,14.07
2023-02-11T01:06:42.078Z,15.55
2023-02-11T01:09:14.571Z,15.30
2023-02-11T01:11:43.128Z,14.48
2023-02-11T01:14:12.480Z,12.57
2023-02-11T01:16:40.793Z,13.13
2023-02-11T01:19:09.744Z,14.18
2023-02-11T01:21:47.600Z,12.57
2023-02-11T01:24:15.004Z,13.68
2023-02-11T01:26:46.033Z,10.27
2023-02-11T01:29:14.350Z,11.95
2023-02-11T01:31:41.687Z,12.02
2023-02-11T01:34:09.497Z,13.07
2023-02-11T01:36:39.295Z,10.75
2023-02-11T01:39:08.621Z,11.75
2023-02-11T01:41:37.198Z,11.52
2023-02-11T01:44:35.577Z,12.27
2023-02-11T01:47:06.910Z,12.77
2023-02-11T01:49:44.417Z,11.82
2023-02-11T01:52:38.052Z,12.90
2023-02-11T01:55:32.854Z,12.60
2023-02-11T01:58:05.538Z,11.00
2023-02-11T02:00:39.570Z,12.20
2023-02-11T02:03:20.797Z,10.77
2023-02-11T02:06:20.608Z,11.68
2023-02-11T02:09:10.867Z,11.27
2023-02-11T02:11:39.428Z,11.02
2023-02-11T02:14:25.617Z,11.10
2023-02-11T02:16:53.666Z,12.35
2023-02-11T02:20:19.277Z,10.68
2023-02-11T02:23:04.485Z,10.23
2023-02-11T02:26:28.635Z,11.40
2023-02-11T02:29:58.036Z,11.48
2023-02-11T02:35:45.272Z,11.07
2023-02-11T02:38:38.237Z,11.77
2023-02-11T02:41:20.066Z,14.57
2023-02-11T02:43:52.874Z,12.75
2023-02-11T02:46:31.925Z,12.50
2023-02-11T02:49:07.272Z,11.93
2023-02-11T02:52:27.870Z,13.25
2023-02-11T02:55:27.876Z,14.00
2023-02-11T02:58:32.962Z,11.77
2023-02-11T03:01:40.051Z,13.60
2023-02-11T03:04:29.599Z,14.80
2023-02-11T03:07:47.321Z,12.82
2023-02-11T03:10:28.940Z,15.60
2023-02-11T03:13:03.900Z,13.35
2023-02-11T03:15:46.738Z,13.50
2023-02-11T03:18:22.368Z,14.00
2023-02-11T03:20:54.872Z,15.23
2023-02-11T03:23:47.625Z,12.90
2023-02-11T03:26:43.657Z,11.80
2023-02-11T03:29:15.346Z,11.70
2023-02-11T03:32:17.150Z,12.73
2023-02-11T03:35:00.222Z,13.40
2023-02-11T03:37:45.264Z,13.18
2023-02-11T03:40:32.320Z,14.45
2023-02-11T03:43:19.065Z,14.35
2023-02-11T03:45:53.845Z,13.10
2023-02-11T03:48:41.100Z,13.63
2023-02-11T03:51:12.948Z,15.98
2023-02-11T03:53:46.135Z,12.52
2023-02-11T03:56:28.545Z,12.73
2023-02-11T03:58:55.947Z,14.18
2023-02-11T04:01:24.557Z,12.85
2023-02-11T04:03:53.405Z,14.30
2023-02-11T04:06:27.263Z,13.05
2023-02-11T04:08:59.729Z,12.68
2023-02-11T04:11:29.409Z,13.00
2023-02-11T04:13:59.481Z,13.55
2023-02-11T04:16:32.885Z,13.07
2023-02-11T04:19:04.076Z,14.07
2023-02-11T04:21:34.898Z,13.20
2023-02-11T04:24:04.282Z,15.40
2023-02-11T04:26:39.759Z,12.35
2023-02-11T04:29:07.506Z,14.68
2023-02-11T04:31:40.288Z,13.27
2023-02-11T04:34:10.334Z,15.05
2023-02-11T04:36:40.846Z,14.77
2023-02-11T04:39:10.329Z,14.77
2023-02-11T04:41:39.599Z,13.45
2023-02-11T04:44:12.518Z,13.27
2023-02-11T04:46:41.026Z,12.30
2023-02-11T04:49:17.056Z,12.57
2023-02-11T04:51:49.515Z,14.48
2023-02-11T04:54:18.074Z,13.07
2023-02-11T04:56:52.824Z,12.68
2023-02-11T04:59:20.199Z,14.73
2023-02-11T05:01:47.664Z,13.00
2023-02-11T05:04:15.209Z,14.35
2023-02-11T05:06:43.380Z,13.73
2023-02-11T05:09:14.285Z,13.70
2023-02-11T05:11:43.172Z,13.75
2023-02-11T05:14:12.203Z,14.80
2023-02-11T05:16:46.672Z,15.68
2023-02-11T05:19:15.731Z,14.60
2023-02-11T05:22:01.444Z,14.88
2023-02-11T05:24:33.187Z,14.40
2023-02-11T05:27:03.785Z,14.80
2023-02-11T05:29:33.165Z,13.88
2023-02-11T05:32:00.854Z,15.68
2023-02-11T05:34:28.903Z,16.02
2023-02-11T05:36:57.092Z,19.10
2023-02-11T05:39:27.329Z,17.17
2023-02-11T05:41:55.472Z,15.20
2023-02-11T05:44:28.135Z,15.93
2023-02-11T05:47:01.550Z,15.65
2023-02-11T05:49:29.026Z,17.08
2023-02-11T05:52:01.224Z,15.38
2023-02-11T05:54:45.490Z,17.50
2023-02-11T05:57:13.857Z,17.35
2023-02-11T05:59:41.711Z,16.55
2023-02-11T06:02:13.322Z,17.10
2023-02-11T06:04:49.725Z,16.92
2023-02-11T06:07:17.728Z,20.25
2023-02-11T06:09:46.075Z,17.45
2023-02-11T06:12:13.430Z,17.15
2023-02-11T06:14:41.450Z,17.98
2023-02-11T06:17:09.972Z,16.40
2023-02-11T06:19:46.016Z,16.13
2023-02-11T06:22:20.227Z,18.05
2023-02-11T06:25:01.369Z,17.83
2023-02-11T06:27:36.248Z,18.42
2023-02-11T06:30:06.931Z,19.30
2023-02-11T06:32:44.046Z,18.15
2023-02-11T06:35:14.948Z,18.52
2023-02-11T06:37:43.855Z,18.95
2023-02-11T06:40:14.690Z,20.60
2023-02-11T06:42:46.721Z,19.52
2023-02-11T06:45:15.381Z,20.33
2023-02-11T06:47:42.988Z,22.80
2023-02-11T06:50:15.224Z,22.00
2023-02-11T06:52:46.139Z,19.50
2023-02-11T06:55:14.230Z,18.38
2023-02-11T06:57:45.273Z,20.45
2023-02-11T07:00:13.966Z,24.33
2023-02-11T07:02:42.887Z,22.08
2023-02-11T07:05:10.794Z,23.02
2023-02-11T07:07:38.999Z,23.75
2023-02-11T07:10:09.542Z,21.88
2023-02-11T07:12:44.187Z,22.40
2023-02-11T07:15:12.296Z,23.17
2023-02-11T07:17:40.254Z,22.40
2023-02-11T07:20:12.511Z,24.23
2023-02-11T07:22:41.584Z,25.05
2023-02-11T07:25:12.244Z,24.33
2023-02-11T07:27:48.210Z,23.95
2023-02-11T07:30:20.517Z,23.77
2023-02-11T07:32:50.035Z,24.00
2023-02-11T07:35:19.596Z,24.40
2023-02-11T07:37:55.024Z,25.60
2023-02-11T07:40:26.401Z,23.10
2023-02-11T07:42:58.673Z,26.00
2023-02-11T07:45:26.436Z,28.42
2023-02-11T07:47:55.598Z,27.23
2023-02-11T07:50:25.517Z,25.63
2023-02-11T07:52:53.027Z,26.83
2023-02-11T07:55:24.065Z,26.38
2023-02-11T07:57:55.384Z,27.40
2023-02-11T08:00:22.855Z,24.85
2023-02-11T08:02:50.164Z,27.88
2023-02-11T08:05:19.683Z,29.35
2023-02-11T08:07:59.345Z,26.85
2023-02-11T08:10:37.668Z,30.42
2023-02-11T08:13:09.878Z,28.48
2023-02-11T08:15:45.322Z,29.97
2023-02-11T08:18:44.293Z,30.33
2023-02-11T08:21:17.709Z,29.25
2023-02-11T08:24:06.949Z,30.40
2023-02-11T08:26:38.526Z,28.55
2023-02-11T08:29:27.632Z,32.38
2023-02-11T08:32:02.102Z,32.97
2023-02-11T08:34:42.378Z,30.00
2023-02-11T08:37:12.651Z,30.27
2023-02-11T08:39:42.301Z,27.17
2023-02-11T08:42:15.376Z,31.30
2023-02-11T08:44:44.307Z,30.25
2023-02-11T08:47:17.587Z,32.47
2023-02-11T08:49:46.505Z,33.38
2023-02-11T08:52:15.467Z,29.10
2023-02-11T08:54:43.190Z,28.98
2023-02-11T08:57:15.306Z,30.75
2023-02-11T08:59:45.046Z,34.95
2023-02-11T09:02:15.529Z,33.80
2023-02-11T09:04:44.351Z,33.75
2023-02-11T09:07:14.273Z,30.73
2023-02-11T09:09:48.827Z,31.65
2023-02-11T09:12:17.320Z,34.08
2023-02-11T09:14:45.598Z,35.50
2023-02-11T09:17:14.910Z,32.53
2023-02-11T09:19:47.902Z,35.30
2023-02-11T09:22:15.335Z,33.33
2023-02-11T09:24:43.241Z,31.92
2023-02-11T09:27:12.307Z,32.53
2023-02-11T09:29:43.495Z,32.60
2023-02-11T09:32:11.662Z,32.63
2023-02-11T09:34:42.512Z,35.20
2023-02-11T09:37:19.945Z,31.67
2023-02-11T09:39:49.230Z,33.38
2023-02-11T09:43:12.231Z,33.17
2023-02-11T09:45:43.429Z,32.88
2023-02-11T09:51:26.604Z,31.23
2023-02-11T09:54:09.711Z,30.00
2023-02-11T09:59:54.598Z,31.83
2023-02-11T10:03:24.538Z,31.63
2023-02-11T10:07:00.295Z,30.92
2023-02-11T10:10:34.722Z,28.85
2023-02-11T10:13:57.457Z,30.10
2023-02-11T10:17:39.259Z,30.02
2023-02-11T10:21:14.736Z,28.77
2023-02-11T10:24:01.746Z,27.90
2023-02-11T10:27:02.434Z,31.88
2023-02-11T10:30:08.968Z,29.00
2023-02-11T10:33:34.617Z,31.13
2023-02-11T10:36:07.895Z,30.75
2023-02-11T10:38:46.514Z,34.35
2023-02-11T10:41:40.503Z,31.85
2023-02-11T10:44:42.187Z,34.13
2023-02-11T10:47:37.602Z,32.85
2023-02-11T10:50:44.107Z,30.15
2023-02-11T10:53:26.073Z,30.83
2023-02-11T10:56:00.028Z,30.42
2023-02-11T10:59:03.684Z,33.72
2023-02-11T11:02:11.240Z,31.52
2023-02-11T11:07:46.515Z,30.55
2023-02-11T11:14:04.503Z,33.53
2023-02-11T11:16:56.040Z,30.30
2023-02-11T11:19:28.774Z,30.23
2023-02-11T11:22:09.403Z,31.05
2023-02-11T11:25:05.760Z,31.38
2023-02-11T11:27:57.231Z,31.60
2023-02-11T11:31:07.805Z,28.17
2023-02-11T11:33:41.954Z,32.13
2023-02-11T11:36:18.061Z,31.35
2023-02-11T11:39:34.004Z,32.05
2023-02-11T11:42:37.291Z,30.52
2023-02-11T11:45:36.962Z,31.83
2023-02-11T11:48:40.287Z,33.50
2023-02-11T11:51:20.862Z,32.13
2023-02-11T11:54:16.984Z,31.23
2023-02-11T11:57:26.405Z,28.13
2023-02-11T12:00:40.693Z,31.52
2023-02-11T12:04:39.985Z,30.23
2023-02-11T12:08:27.316Z,27.65
2023-02-11T12:11:54.103Z,26.40
2023-02-11T12:19:29.266Z,26.55
2023-02-11T12:23:11.581Z,25.70
2023-02-11T12:26:24.274Z,25.48
2023-02-11T12:30:04.907Z,26.48
2023-02-11T12:33:10.147Z,25.83
2023-02-11T12:36:27.013Z,25.60
2023-02-11T12:40:30.983Z,27.58
2023-02-11T12:43:23.468Z,24.05
2023-02-11T12:46:40.846Z,23.77
2023-02-11T12:50:14.404Z,22.58
2023-02-11T12:53:26.195Z,22.42
2023-02-11T12:56:29.383Z,23.02
2023-02-11T12:59:20.271Z,23.52
2023-02-11T13:01:59.951Z,22.10
2023-02-11T13:04:52.506Z,25.95
2023-02-11T13:07:46.728Z,22.63
2023-02-11T13:10:44.706Z,25.02
2023-02-11T13:13:34.029Z,23.88
2023-02-11T13:16:34.571Z,24.05
2023-02-11T13:19:13.819Z,21.83
2023-02-11T13:22:19.798Z,22.30
2023-02-11T13:25:33.875Z,20.20
2023-02-11T13:28:34.822Z,22.90
2023-02-11T13:31:08.518Z,22.98
2023-02-11T13:33:46.163Z,21.13
2023-02-11T13:36:27.221Z,20.63
2023-02-11T13:39:21.150Z,20.17
2023-02-11T13:42:05.806Z,20.90
2023-02-11T13:44:37.721Z,19.30
2023-02-11T13:47:37.761Z,21.30
2023-02-11T13:53:09.904Z,20.73
2023-02-11T13:55:39.114Z,22.17
2023-02-11T13:58:06.263Z,23.25
2023-02-11T14:00:54.972Z,23.17
2023-02-11T14:03:57.591Z,21.55
2023-02-11T14:07:08.418Z,20.80
2023-02-11T14:09:43.769Z,21.85
2023-02-11T14:13:17.876Z,22.42
2023-02-11T14:16:10.393Z,21.15
2023-02-11T14:19:09.035Z,23.02
2023-02-11T14:21:51.458Z,22.90
2023-02-11T14:25:13.508Z,22.65
2023-02-11T14:27:58.090Z,20.48
2023-02-11T14:30:56.061Z,22.60
2023-02-11T14:34:14.700Z,21.35
2023-02-11T14:38:10.909Z,21.35
2023-02-11T14:41:30.758Z,20.38
2023-02-11T14:44:17.770Z,19.15
2023-02-11T14:47:10.517Z,18.02
2023-02-11T14:49:41.950Z,17.60
2023-02-11T14:52:35.959Z,17.23
2023-02-11T14:55:48.585Z,18.23
2023-02-11T14:58:32.762Z,18.27
2023-02-11T15:01:47.098Z,16.35
2023-02-11T15:04:45.024Z,16.60
2023-02-11T15:07:15.563Z,17.90
2023-02-11T15:09:55.117Z,18.50
2023-02-11T15:12:31.771Z,16.90
2023-02-11T15:15:03.459Z,18.00
2023-02-11T15:17:43.086Z,16.40
2023-02-11T15:20:32.188Z,17.65
2023-02-11T15:23:34.269Z,19.90
2023-02-11T15:26:23.950Z,18.08
2023-02-11T15:29:25.116Z,21.65
2023-02-11T15:32:38.207Z,18.73
2023-02-11T15:35:20.824Z,18.58
2023-02-11T15:37:56.786Z,20.75
2023-02-11T15:40:42.193Z,18.95
2023-02-11T15:46:48.470Z,18.95
2023-02-11T15:49:19.377Z,18.23
2023-02-11T15:51:57.413Z,18.50
2023-02-11T15:54:39.564Z,20.60
2023-02-11T15:57:14.228Z,19.45
2023-02-11T15:59:54.547Z,18.73
2023-02-11T16:02:36.716Z,21.17
2023-02-11T16:05:10.639Z,20.75
2023-02-11T16:07:51.587Z,20.23
2023-02-11T16:10:38.131Z,20.88
2023-02-11T16:13:08.419Z,21.55
2023-02-11T16:16:05.538Z,20.02
2023-02-11T16:19:03.362Z,21.15
2023-02-11T16:24:39.491Z,20.05
2023-02-11T16:27:30.535Z,21.08
2023-02-11T16:30:02.137Z,20.85
2023-02-11T16:32:31.493Z,22.17
2023-02-11T16:35:02.181Z,20.70
2023-02-11T16:37:33.010Z,19.33
2023-02-11T16:40:01.639Z,22.38
2023-02-11T16:42:30.899Z,20.15
2023-02-11T16:45:03.123Z,20.48
2023-02-11T16:47:40.959Z,22.23
2023-02-11T16:50:32.655Z,20.42
2023-02-11T16:53:09.732Z,22.38
2023-02-11T16:55:41.066Z,19.98
2023-02-11T16:58:14.776Z,20.77
2023-02-11T17:00:52.064Z,21.55
2023-02-11T17:03:30.046Z,23.17
2023-02-11T17:06:03.168Z,22.27
2023-02-11T17:08:30.885Z,23.45
2023-02-11T17:10:58.593Z,24.05
2023-02-11T17:13:25.940Z,22.38
2023-02-11T17:15:55.363Z,21.90
2023-02-11T17:18:28.219Z,23.85
2023-02-11T17:21:04.936Z,22.52
2023-02-11T17:23:33.352Z,22.05
2023-02-11T17:26:05.366Z,23.90
2023-02-11T17:28:44.445Z,23.20
2023-02-11T17:31:22.589Z,23.17
2023-02-11T17:33:55.485Z,23.67
2023-02-11T17:36:49.187Z,24.95
2023-02-11T17:39:22.740Z,22.58
2023-02-11T17:41:57.246Z,21.92
2023-02-11T17:44:25.913Z,24.05
2023-02-11T17:46:56.905Z,23.67
2023-02-11T17:49:25.008Z,23.17
2023-02-11T17:51:55.613Z,26.08
2023-02-11T17:54:24.826Z,24.23
2023-02-11T17:56:57.773Z,26.10
2023-02-11T17:59:35.591Z,25.67
2023-02-11T18:02:18.837Z,23.90
2023-02-11T18:04:47.992Z,23.25
2023-02-11T18:07:20.248Z,23.38
2023-02-11T18:09:57.628Z,25.02
2023-02-11T18:12:30.137Z,24.33
2023-02-11T18:15:17.005Z,23.40
2023-02-11T18:17:45.665Z,24.33
2023-02-11T18:20:16.862Z,23.52
2023-02-11T18:22:48.314Z,20.33
2023-02-11T18:25:27.841Z,22.73
2023-02-11T18:27:57.049Z,21.02
2023-02-11T18:30:49.200Z,21.88
2023-02-11T18:33:17.726Z,23.75
2023-02-11T18:35:50.842Z,20.33
2023-02-11T18:38:20.088Z,21.27
2023-02-11T18:40:49.759Z,22.88
2023-02-11T18:43:28.917Z,23.27
2023-02-11T18:45:58.596Z,22.10
2023-02-11T18:48:30.699Z,23.05
2023-02-11T18:54:17.813Z,19.65
2023-02-11T18:56:52.752Z,20.55
2023-02-11T18:59:26.589Z,22.92
2023-02-11T19:01:54.049Z,21.98
2023-02-11T19:04:32.344Z,22.55
2023-02-11T19:09:45.984Z,24.30
2023-02-11T19:12:13.724Z,24.90
2023-02-11T19:14:56.233Z,24.60
2023-02-11T19:17:34.719Z,20.25
2023-02-11T19:20:10.520Z,23.52
2023-02-11T19:22:41.217Z,24.35
2023-02-11T19:25:11.291Z,24.83
2023-02-11T19:27:43.878Z,23.25
2023-02-11T19:30:16.877Z,22.40
2023-02-11T19:32:50.690Z,21.95
2023-02-11T19:35:33.398Z,22.95
2023-02-11T19:38:06.384Z,20.90
2023-02-11T19:40:37.082Z,20.30
2023-02-11T19:43:08.357Z,23.77
2023-02-11T19:45:39.696Z,23.02
2023-02-11T19:48:07.252Z,23.55
2023-02-11T19:50:36.088Z,22.30
2023-02-11T19:53:08.933Z,22.73
2023-02-11T19:55:42.901Z,24.05
2023-02-11T19:58:11.057Z,25.40
2023-02-11T20:00:42.392Z,23.20
2023-02-11T20:03:11.426Z,25.70
2023-02-11T20:05:43.442Z,22.80
2023-02-11T20:08:11.405Z,24.95
2023-02-11T20:10:41.724Z,26.33
2023-02-11T20:15:57.583Z,25.75
2023-02-11T20:18:25.388Z,24.27
2023-02-11T20:20:54.245Z,24.90
2023-02-11T20:23:22.699Z,23.23
2023-02-11T20:26:02.193Z,22.60
2023-02-11T20:31:11.141Z,23.92
2023-02-11T20:33:50.081Z,22.35
2023-02-11T20:36:31.345Z,23.95
2023-02-11T20:39:04.836Z,23.17
2023-02-11T20:41:45.246Z,23.90
2023-02-11T20:44:16.980Z,23.85
2023-02-11T20:46:48.988Z,22.75
2023-02-11T20:49:29.561Z,23.63
2023-02-11T20:55:01.702Z,24.90
2023-02-11T20:57:39.795Z,24.35
2023-02-11T21:00:20.730Z,22.92
2023-02-11T21:02:55.185Z,20.58
2023-02-11T21:05:40.698Z,23.20
2023-02-11T21:08:09.586Z,24.70
2023-02-11T21:10:45.930Z,22.20
2023-02-11T21:13:28.777Z,22.13
2023-02-11T21:15:59.889Z,23.27
2023-02-11T21:18:39.667Z,22.77
2023-02-11T21:21:19.238Z,21.60
2023-02-11T21:23:55.858Z,21.77
2023-02-11T21:26:45.224Z,21.55
2023-02-11T21:29:20.399Z,21.27
2023-02-11T21:31:53.653Z,21.77
2023-02-11T21:34:29.102Z,23.42
2023-02-11T21:37:06.365Z,22.05
2023-02-11T21:39:37.097Z,21.38
2023-02-11T21:42:08.254Z,23.58
2023-02-11T21:44:37.875Z,21.42
2023-02-11T21:47:06.815Z,19.70
2023-02-11T21:49:50.780Z,19.88
2023-02-11T21:52:29.541Z,21.67
2023-02-11T21:54:58.998Z,22.17
2023-02-11T21:57:29.643Z,18.55
2023-02-11T22:00:07.315Z,18.05
2023-02-11T22:02:50.768Z,19.02
2023-02-11T22:05:36.739Z,20.25
2023-02-11T22:08:06.166Z,19.70
2023-02-11T22:13:49.600Z,18.95
2023-02-11T22:16:19.625Z,19.73
2023-02-11T22:18:50.146Z,20.00
2023-02-11T22:21:30.281Z,21.17
2023-02-11T22:24:00.479Z,19.77
2023-02-11T22:26:32.380Z,20.27
2023-02-11T22:29:00.905Z,19.23
2023-02-11T22:31:36.871Z,19.48
2023-02-11T22:34:06.583Z,17.17
2023-02-11T22:36:53.235Z,19.15
2023-02-11T22:39:29.696Z,17.70
2023-02-11T22:42:07.423Z,20.27
2023-02-11T22:47:27.974Z,18.55
2023-02-11T22:50:04.869Z,19.73
2023-02-11T22:52:38.508Z,17.52
2023-02-11T22:55:16.497Z,18.33
2023-02-11T22:57:45.330Z,19.83
2023-02-11T23:00:14.233Z,19.60
2023-02-11T23:05:33.515Z,20.30
2023-02-11T23:08:12.880Z,19.38
2023-02-11T23:10:56.585Z,20.02
2023-02-11T23:13:39.636Z,19.88
2023-02-11T23:16:17.831Z,18.95
2023-02-11T23:18:49.948Z,18.92
2023-02-11T23:21:39.929Z,21.10
2023-02-11T23:24:14.511Z,18.83
2023-02-11T23:26:46.028Z,19.20
2023-02-11T23:29:15.678Z,20.30
2023-02-11T23:31:51.885Z,19.55
2023-02-11T23:34:25.573Z,19.23
2023-02-11T23:37:12.348Z,18.98
2023-02-11T23:39:39.851Z,18.95
2023-02-11T23:42:09.364Z,20.95
2023-02-11T23:44:40.284Z,17.95
2023-02-11T23:47:07.972Z,20.40
2023-02-11T23:49:36.142Z,17.48
2023-02-11T23:52:11.799Z,20.00
2023-02-11T23:54:48.373Z,20.25
2023-02-11T23:57:18.110Z,19.42
2023-02-11T23:59:49.986Z,19.20
